Terminal Aerodrome Forecast
Issued by NWS

Home | Current Version | Previous Version | Text Only | Print | Product List | Glossary On
Versions: 1 2 3 4 5 6 7 8 9 10 11 12 13 14 15 16 17 18 19
000
FTPA31 PHFO 271100
TAFJRF
TAF
PHJR 271139Z 2712/2812 30006KT P6SM FEW050
     FM272100 31010G17KT P6SM FEW030 SCT050
     FM280500 30006KT P6SM FEW030 SCT050=

USA.gov is the U.S. government's official web portal to all federal, state and local government web resources and services.